Time;durP1;ratioP1;P1;durP2;ratioP2;P2;SDS_P1;SDS_P2;PMS_P1;PMS_P2;Temp;Humidity;BMP_temperature;BMP_pressure;BME280_temperature;BME280_humidity;BME280_pressure;Samples;Min_cycle;Max_cycle;Signal;HPM_P1;HPM_P2
2023/01/07 00:01:19;;;;;;;12.70;6.68;;;11.40;99.90;;;;;;5050065;28;20029;-73
2023/01/07 00:03:46;;;;;;;10.63;6.93;;;11.50;99.90;;;;;;5052479;28;20079;-73
2023/01/07 00:06:17;;;;;;;9.88;6.65;;;11.40;99.90;;;;;;5052651;28;20041;-73
2023/01/07 00:08:44;;;;;;;8.63;6.25;;;11.40;99.90;;;;;;5043727;28;20492;-73
2023/01/07 00:11:19;;;;;;;11.07;6.93;;;11.50;99.90;;;;;;5033227;28;20017;-73
2023/01/07 00:13:45;;;;;;;12.07;6.83;;;11.40;99.90;;;;;;5039105;28;20473;-73
2023/01/07 00:16:14;;;;;;;9.57;6.70;;;11.40;99.90;;;;;;5052968;28;20025;-73
2023/01/07 00:18:40;;;;;;;8.63;6.10;;;11.50;99.90;;;;;;5038215;28;20454;-73
2023/01/07 00:21:08;;;;;;;12.43;6.35;;;11.50;99.90;;;;;;5052483;28;20316;-73
2023/01/07 00:23:35;;;;;;;11.95;5.90;;;11.50;99.90;;;;;;5051515;28;20028;-73
2023/01/07 00:26:04;;;;;;;12.05;6.13;;;11.50;99.90;;;;;;5043154;28;20533;-74
2023/01/07 00:28:30;;;;;;;8.60;5.38;;;11.50;99.90;;;;;;5046762;28;20067;-74
2023/01/07 00:31:03;;;;;;;11.70;5.93;;;11.50;99.90;;;;;;5058285;28;20063;-74
2023/01/07 00:33:29;;;;;;;8.88;5.50;;;11.50;99.90;;;;;;5069573;28;20025;-74
2023/01/07 00:36:06;;;;;;;9.80;5.30;;;11.50;99.90;;;;;;5051910;28;20033;-74
2023/01/07 00:38:32;;;;;;;10.18;5.20;;;11.50;99.90;;;;;;5040168;28;20483;-74
2023/01/07 00:40:58;;;;;;;11.65;4.68;;;11.50;99.90;;;;;;5051350;28;20051;-74
2023/01/07 00:43:23;;;;;;;8.73;4.65;;;11.50;99.90;;;;;;5046491;28;20280;-74
2023/01/07 00:45:49;;;;;;;9.35;5.00;;;11.50;99.90;;;;;;5008750;28;20202;-73
2023/01/07 00:48:17;;;;;;;7.53;4.72;;;11.50;99.90;;;;;;5051642;28;20751;-74
2023/01/07 00:50:43;;;;;;;8.68;4.90;;;11.50;99.90;;;;;;5052425;28;20478;-74
2023/01/07 00:53:10;;;;;;;12.02;5.25;;;11.50;99.90;;;;;;5064318;28;20025;-73
2023/01/07 00:55:36;;;;;;;8.35;4.90;;;11.50;99.90;;;;;;5043421;28;20021;-74
2023/01/07 00:58:01;;;;;;;9.82;4.65;;;11.60;99.90;;;;;;5048482;28;20116;-74
2023/01/07 01:00:27;;;;;;;7.72;4.63;;;11.60;99.90;;;;;;5051437;28;20017;-74
2023/01/07 01:02:53;;;;;;;9.32;4.90;;;11.60;99.90;;;;;;5050961;28;20021;-73
2023/01/07 01:05:19;;;;;;;8.20;5.03;;;11.50;99.90;;;;;;5050445;28;20041;-73
2023/01/07 01:07:44;;;;;;;8.00;4.90;;;11.60;99.90;;;;;;5053195;28;20127;-73
2023/01/07 01:10:13;;;;;;;8.50;4.95;;;11.60;99.90;;;;;;5051774;28;20029;-73
2023/01/07 01:12:39;;;;;;;12.88;4.85;;;11.50;99.90;;;;;;5051845;28;20017;-73
2023/01/07 01:15:09;;;;;;;8.85;5.03;;;11.60;99.90;;;;;;5051923;28;20490;-74
2023/01/07 01:17:35;;;;;;;9.18;4.63;;;11.50;99.90;;;;;;5049085;28;20025;-74
2023/01/07 01:20:00;;;;;;;7.07;4.53;;;11.50;99.90;;;;;;5037529;28;20031;-73
2023/01/07 01:22:26;;;;;;;6.78;4.82;;;11.50;99.90;;;;;;5051136;28;20095;-73
2023/01/07 01:24:52;;;;;;;9.70;4.82;;;11.50;99.90;;;;;;5051000;28;20029;-73
2023/01/07 01:27:18;;;;;;;7.85;4.60;;;11.50;99.90;;;;;;5051769;28;20052;-73
2023/01/07 01:29:44;;;;;;;6.80;4.30;;;11.50;99.90;;;;;;5051214;28;20115;-74
2023/01/07 01:32:10;;;;;;;6.25;4.35;;;11.40;99.90;;;;;;5051163;28;20061;-74
2023/01/07 01:34:35;;;;;;;9.65;4.88;;;11.50;99.90;;;;;;5050577;28;20025;-74
2023/01/07 01:37:01;;;;;;;10.02;5.13;;;11.50;99.90;;;;;;5049750;28;20027;-74
2023/01/07 01:39:26;;;;;;;8.70;5.30;;;11.40;99.90;;;;;;5050628;28;20459;-74
2023/01/07 01:41:52;;;;;;;10.00;5.28;;;11.40;99.90;;;;;;5049563;28;20104;-74
2023/01/07 01:44:48;;;;;;;11.52;5.35;;;11.40;99.90;;;;;;5051041;28;20021;-74
2023/01/07 01:47:32;;;;;;;;;;;11.40;99.90;;;;;;5051416;28;20500;-74
2023/01/07 01:50:20;;;;;;;10.70;6.18;;;11.30;99.90;;;;;;5051345;28;20361;-73
2023/01/07 01:52:51;;;;;;;11.77;6.13;;;11.30;99.90;;;;;;5055512;28;20060;-73
2023/01/07 01:55:21;;;;;;;12.77;6.68;;;11.30;99.90;;;;;;5049103;28;20040;-74
2023/01/07 01:57:51;;;;;;;10.20;6.70;;;11.30;99.90;;;;;;5049365;28;20083;-73
2023/01/07 02:00:17;;;;;;;10.02;6.75;;;11.20;99.90;;;;;;5049760;28;20051;-73
2023/01/07 02:02:55;;;;;;;11.43;6.25;;;11.20;99.90;;;;;;5048534;28;20578;-73
2023/01/07 02:05:24;;;;;;;12.68;7.43;;;11.20;99.90;;;;;;5050810;28;20098;-73
2023/01/07 02:07:50;;;;;;;12.20;7.03;;;11.20;99.90;;;;;;5064766;28;20050;-74
2023/01/07 02:10:19;;;;;;;13.43;7.13;;;11.10;99.90;;;;;;5049706;28;20237;-73
2023/01/07 02:12:57;;;;;;;11.15;7.15;;;11.10;99.90;;;;;;5050401;28;20041;-73
2023/01/07 02:15:54;;;;;;;12.40;7.55;;;11.10;99.90;;;;;;5050615;28;20065;-73
2023/01/07 02:18:27;;;;;;;11.27;7.13;;;11.10;99.90;;;;;;5039320;28;20075;-73
2023/01/07 02:21:42;;;;;;;16.17;7.07;;;11.00;99.90;;;;;;5050306;28;20086;-73
2023/01/07 02:24:22;;;;;;;12.85;7.45;;;11.00;99.90;;;;;;5039973;28;20491;-74
2023/01/07 02:27:09;;;;;;;14.60;7.57;;;10.90;99.90;;;;;;5049858;28;20032;-73
2023/01/07 02:30:11;;;;;;;11.82;7.35;;;10.90;99.90;;;;;;5050111;28;20017;-73
2023/01/07 02:32:45;;;;;;;10.38;7.13;;;10.90;99.90;;;;;;5050696;28;20075;-73
2023/01/07 02:35:14;;;;;;;13.13;7.88;;;10.90;99.90;;;;;;5036631;28;20061;-73
2023/01/07 02:38:06;;;;;;;10.18;6.90;;;10.80;99.90;;;;;;5049883;28;20410;-73
2023/01/07 02:41:08;;;;;;;13.02;7.65;;;10.90;99.90;;;;;;5038173;28;20025;-73
2023/01/07 02:43:56;;;;;;;13.13;7.07;;;10.80;99.90;;;;;;5049495;28;20017;-73
2023/01/07 02:46:21;;;;;;;15.25;7.60;;;10.80;99.90;;;;;;5047975;28;20021;-74
2023/01/07 02:48:48;;;;;;;15.02;7.60;;;10.80;99.90;;;;;;5049449;28;20092;-74
2023/01/07 02:51:13;;;;;;;14.90;7.55;;;10.70;99.90;;;;;;5050396;28;20384;-74
2023/01/07 02:53:44;;;;;;;13.02;7.90;;;10.80;99.90;;;;;;5049579;28;20017;-73
2023/01/07 02:56:12;;;;;;;11.02;7.15;;;10.70;99.90;;;;;;5049864;28;20074;-73
2023/01/07 02:59:11;;;;;;;12.00;7.03;;;10.70;99.90;;;;;;5049566;28;20059;-73
2023/01/07 03:02:04;;;;;;;10.98;7.10;;;10.70;99.90;;;;;;5050365;28;20390;-73
2023/01/07 03:04:56;;;;;;;18.05;7.65;;;10.70;99.90;;;;;;5038185;28;20094;-73
2023/01/07 03:07:46;;;;;;;13.63;6.75;;;10.70;99.90;;;;;;5035238;28;20084;-74
2023/01/07 03:10:34;;;;;;;13.40;6.60;;;10.70;99.90;;;;;;5043286;28;20108;-73
2023/01/07 03:13:04;;;;;;;11.27;6.78;;;10.60;99.90;;;;;;5048538;28;20520;-73
2023/01/07 03:15:37;;;;;;;11.15;6.72;;;10.70;99.90;;;;;;5049305;28;20048;-73
2023/01/07 03:18:27;;;;;;;14.88;6.97;;;10.60;99.90;;;;;;5049447;28;20025;-73
2023/01/07 03:20:58;;;;;;;15.50;6.40;;;10.60;99.90;;;;;;5029518;28;20083;-74
2023/01/07 03:23:26;;;;;;;14.00;6.40;;;10.60;99.90;;;;;;5030341;28;20018;-73
2023/01/07 03:25:54;;;;;;;11.48;6.75;;;10.60;99.90;;;;;;5048322;28;20098;-74
2023/01/07 03:28:26;;;;;;;12.93;6.40;;;10.60;99.90;;;;;;5049875;28;20485;-74
2023/01/07 03:30:55;;;;;;;12.27;6.95;;;10.60;99.90;;;;;;5047846;28;20037;-73
2023/01/07 03:33:35;;;;;;;12.55;6.63;;;10.60;99.90;;;;;;5048438;28;20075;-74
2023/01/07 03:36:03;;;;;;;12.65;6.95;;;10.60;99.90;;;;;;5035202;28;20110;-73
2023/01/07 03:38:30;;;;;;;13.80;6.57;;;10.60;99.90;;;;;;5048495;28;20021;-73
2023/01/07 03:40:56;;;;;;;10.38;6.32;;;10.60;99.90;;;;;;5030462;28;20037;-74
2023/01/07 03:43:22;;;;;;;14.30;6.43;;;10.60;99.90;;;;;;5048527;28;20389;-74
2023/01/07 03:45:48;;;;;;;10.32;6.35;;;10.60;99.90;;;;;;5049263;28;20126;-73
2023/01/07 03:48:14;;;;;;;13.15;6.57;;;10.50;99.90;;;;;;5049946;28;20421;-73
2023/01/07 03:50:40;;;;;;;11.93;6.20;;;10.60;99.90;;;;;;5049178;28;20029;-74
2023/01/07 03:53:06;;;;;;;14.38;7.00;;;10.60;99.90;;;;;;5029978;28;20018;-73
2023/01/07 03:55:31;;;;;;;10.43;6.72;;;10.60;99.90;;;;;;5042092;28;20025;-73
2023/01/07 03:57:57;;;;;;;13.02;6.68;;;10.60;99.90;;;;;;5049747;28;20123;-73
2023/01/07 04:00:23;;;;;;;16.63;7.20;;;10.60;99.90;;;;;;5042960;28;20458;-73
2023/01/07 04:02:49;;;;;;;13.25;6.78;;;10.60;99.90;;;;;;5052019;28;20018;-74
2023/01/07 04:05:15;;;;;;;12.85;6.80;;;10.60;99.90;;;;;;5032466;28;20407;-74
2023/01/07 04:07:41;;;;;;;16.02;7.18;;;10.60;99.90;;;;;;5045817;28;20025;-73
2023/01/07 04:10:07;;;;;;;12.45;6.40;;;10.60;99.90;;;;;;5052880;28;20032;-73
2023/01/07 04:12:33;;;;;;;11.20;6.50;;;10.60;99.90;;;;;;5051880;28;20382;-73
2023/01/07 04:14:58;;;;;;;10.05;7.10;;;10.70;99.90;;;;;;5044498;28;20030;-74
2023/01/07 04:17:24;;;;;;;11.52;6.70;;;10.60;99.90;;;;;;5050933;28;20017;-74
2023/01/07 04:19:50;;;;;;;13.63;7.25;;;10.70;99.90;;;;;;5046386;28;20493;-73
2023/01/07 04:22:15;;;;;;;14.55;7.43;;;10.70;99.90;;;;;;5051569;28;20013;-73
2023/01/07 04:24:41;;;;;;;13.98;7.20;;;10.70;99.90;;;;;;5051874;28;20127;-74
2023/01/07 04:27:06;;;;;;;13.15;7.20;;;10.70;99.90;;;;;;5045250;28;20036;-74
2023/01/07 04:29:32;;;;;;;12.40;7.88;;;10.70;99.90;;;;;;5048405;28;20025;-74
2023/01/07 04:31:58;;;;;;;13.20;7.78;;;10.70;99.90;;;;;;5033744;28;20478;-74
2023/01/07 04:34:24;;;;;;;16.60;7.50;;;10.70;99.90;;;;;;5051103;28;20035;-73
2023/01/07 04:36:49;;;;;;;13.27;8.15;;;10.70;99.90;;;;;;5033856;28;20021;-74
2023/01/07 04:39:16;;;;;;;12.15;7.97;;;10.70;99.90;;;;;;5050850;28;20096;-74
2023/01/07 04:41:42;;;;;;;15.70;8.82;;;10.70;99.90;;;;;;5052158;28;20047;-74
2023/01/07 04:44:08;;;;;;;15.75;8.63;;;10.70;99.90;;;;;;5052542;28;20107;-74
2023/01/07 04:46:33;;;;;;;19.23;8.35;;;10.70;99.90;;;;;;5050271;28;20021;-73
2023/01/07 04:48:59;;;;;;;16.33;8.52;;;10.70;99.90;;;;;;5051601;28;20021;-74
2023/01/07 04:51:24;;;;;;;15.30;9.57;;;10.70;99.90;;;;;;5051315;28;20421;-74
2023/01/07 04:53:50;;;;;;;17.10;8.90;;;10.70;99.90;;;;;;5052124;28;20032;-74
2023/01/07 04:56:16;;;;;;;17.75;8.88;;;10.70;99.90;;;;;;5051105;28;20587;-73
2023/01/07 04:58:42;;;;;;;20.55;9.68;;;10.80;99.90;;;;;;5032314;28;20570;-73
2023/01/07 05:01:08;;;;;;;17.25;9.27;;;10.70;99.90;;;;;;5031024;28;20116;-74
2023/01/07 05:03:34;;;;;;;14.98;9.10;;;10.70;99.90;;;;;;5039485;28;20104;-73
2023/01/07 05:06:00;;;;;;;22.00;9.63;;;10.80;99.90;;;;;;5041954;28;20499;-74
2023/01/07 05:08:26;;;;;;;16.38;9.10;;;10.70;99.90;;;;;;5051331;28;20021;-74
2023/01/07 05:10:52;;;;;;;15.10;9.35;;;10.70;99.90;;;;;;5044101;28;20029;-74
2023/01/07 05:13:19;;;;;;;19.10;10.00;;;10.70;99.90;;;;;;5051386;28;20028;-74
2023/01/07 05:15:45;;;;;;;17.38;10.10;;;10.70;99.90;;;;;;5051611;28;20441;-74
2023/01/07 05:18:11;;;;;;;19.85;9.75;;;10.70;99.90;;;;;;5050342;28;20088;-74
2023/01/07 05:20:37;;;;;;;16.35;10.13;;;10.70;99.90;;;;;;5051875;28;20029;-74
2023/01/07 05:23:04;;;;;;;18.13;10.10;;;10.70;99.90;;;;;;5049947;28;20086;-74
2023/01/07 05:25:31;;;;;;;17.17;9.43;;;10.60;99.90;;;;;;5049946;28;20024;-74
2023/01/07 05:27:57;;;;;;;18.02;9.88;;;10.70;99.90;;;;;;5039911;28;20459;-74
2023/01/07 05:30:22;;;;;;;17.25;9.48;;;10.60;99.90;;;;;;5047738;28;20017;-73
2023/01/07 05:32:48;;;;;;;18.35;9.85;;;10.70;99.90;;;;;;5051117;28;20040;-74
2023/01/07 05:35:14;;;;;;;16.50;9.50;;;10.60;99.90;;;;;;5051278;28;20486;-73
2023/01/07 05:37:39;;;;;;;16.90;9.52;;;10.60;99.90;;;;;;5044416;28;20376;-74
2023/01/07 05:40:06;;;;;;;13.57;8.55;;;10.60;99.90;;;;;;5031263;28;20021;-74
2023/01/07 05:42:31;;;;;;;17.67;8.80;;;10.60;99.90;;;;;;5045588;28;20032;-74
2023/01/07 05:44:57;;;;;;;12.95;8.55;;;10.60;99.90;;;;;;5050915;28;20394;-74
2023/01/07 05:47:23;;;;;;;12.55;8.30;;;10.60;99.90;;;;;;5043683;28;20029;-74
2023/01/07 05:49:48;;;;;;;12.82;8.32;;;10.50;99.90;;;;;;5046968;28;20056;-74
2023/01/07 05:52:14;;;;;;;13.82;8.18;;;10.50;99.90;;;;;;5042907;28;20021;-74
2023/01/07 05:54:40;;;;;;;12.93;8.43;;;10.50;99.90;;;;;;5051011;28;20100;-74
2023/01/07 05:57:05;;;;;;;15.55;8.82;;;10.50;99.90;;;;;;5044718;28;20099;-74
2023/01/07 05:59:33;;;;;;;15.18;8.60;;;10.50;99.90;;;;;;5027882;28;20028;-73
2023/01/07 06:01:59;;;;;;;13.25;8.73;;;10.50;99.90;;;;;;5047794;28;20021;-74
2023/01/07 06:04:25;;;;;;;19.70;8.93;;;10.40;99.90;;;;;;5035899;28;20167;-73
2023/01/07 06:06:51;;;;;;;17.45;8.73;;;10.40;99.90;;;;;;5056756;28;20079;-74
2023/01/07 06:09:17;;;;;;;15.90;8.93;;;10.40;99.90;;;;;;5038865;28;20112;-73
2023/01/07 06:11:42;;;;;;;18.17;8.65;;;10.40;99.90;;;;;;5035298;28;20051;-74
2023/01/07 06:14:08;;;;;;;14.43;8.52;;;10.40;99.90;;;;;;5046921;28;20059;-74
2023/01/07 06:16:34;;;;;;;14.13;8.50;;;10.40;99.90;;;;;;5049676;28;20466;-73
2023/01/07 06:19:00;;;;;;;20.08;8.43;;;10.40;99.90;;;;;;5050645;28;20075;-74
2023/01/07 06:21:26;;;;;;;14.70;8.77;;;10.40;99.90;;;;;;5048370;28;20053;-73
2023/01/07 06:23:51;;;;;;;13.88;8.07;;;10.30;99.90;;;;;;5047109;28;20478;-73
2023/01/07 06:26:17;;;;;;;15.63;7.50;;;10.30;99.90;;;;;;5048685;28;20063;-73
2023/01/07 06:28:43;;;;;;;13.07;7.50;;;10.30;99.90;;;;;;5046340;28;20021;-73
2023/01/07 06:31:09;;;;;;;13.05;7.40;;;10.30;99.90;;;;;;5048182;28;20021;-73
2023/01/07 06:33:36;;;;;;;16.35;7.53;;;10.30;99.90;;;;;;5037030;28;20044;-74
2023/01/07 06:36:02;;;;;;;15.40;7.00;;;10.30;99.90;;;;;;5032552;28;20474;-73
2023/01/07 06:38:28;;;;;;;10.95;6.45;;;10.30;99.90;;;;;;5036967;28;20025;-74
2023/01/07 06:40:54;;;;;;;12.75;6.20;;;10.30;99.90;;;;;;5037284;28;20031;-74
2023/01/07 06:43:19;;;;;;;14.15;6.97;;;10.30;99.90;;;;;;5040217;28;20021;-74
2023/01/07 06:45:45;;;;;;;12.80;6.20;;;10.30;99.90;;;;;;5036839;28;20029;-74
2023/01/07 06:48:10;;;;;;;12.85;6.70;;;10.30;99.90;;;;;;5035832;28;20451;-74
2023/01/07 06:50:36;;;;;;;10.23;6.15;;;10.20;99.90;;;;;;5036934;28;20027;-74
2023/01/07 06:53:02;;;;;;;15.20;6.53;;;10.30;99.90;;;;;;5038076;28;20037;-74
2023/01/07 06:55:28;;;;;;;10.52;5.68;;;10.20;99.90;;;;;;5038283;28;20071;-74
2023/01/07 06:57:54;;;;;;;15.05;6.00;;;10.20;99.90;;;;;;5040233;28;20486;-74
2023/01/07 07:00:20;;;;;;;12.02;5.40;;;10.20;99.90;;;;;;5037695;28;20460;-73
2023/01/07 07:02:46;;;;;;;8.73;4.68;;;10.30;99.90;;;;;;5037063;28;20811;-75
2023/01/07 07:05:12;;;;;;;8.38;4.57;;;10.30;99.90;;;;;;5037797;28;20049;-74
2023/01/07 07:07:38;;;;;;;8.27;4.28;;;10.30;99.90;;;;;;5044199;28;20029;-73
2023/01/07 07:10:06;;;;;;;7.25;3.95;;;10.30;99.90;;;;;;5043327;28;20051;-74
2023/01/07 07:12:32;;;;;;;10.70;4.20;;;10.30;99.90;;;;;;5039864;28;20104;-74
2023/01/07 07:14:58;;;;;;;10.05;3.90;;;10.40;99.90;;;;;;5039093;28;20029;-74
2023/01/07 07:17:24;;;;;;;6.43;3.28;;;10.40;99.90;;;;;;5050226;28;20546;-72
2023/01/07 07:19:50;;;;;;;7.53;3.42;;;10.40;99.90;;;;;;5031608;28;20104;-72
2023/01/07 07:22:15;;;;;;;7.35;3.25;;;10.50;99.90;;;;;;5045591;28;20047;-72
2023/01/07 07:24:41;;;;;;;6.90;3.28;;;10.50;99.90;;;;;;5055444;28;20032;-72
2023/01/07 07:27:06;;;;;;;7.00;3.20;;;10.50;99.90;;;;;;5051125;28;20028;-73
2023/01/07 07:29:32;;;;;;;7.30;3.10;;;10.50;99.90;;;;;;5041842;28;20382;-73
2023/01/07 07:31:58;;;;;;;5.50;2.63;;;10.50;99.90;;;;;;5047838;28;20058;-73
2023/01/07 07:34:23;;;;;;;6.55;2.92;;;10.50;99.90;;;;;;5049851;28;20052;-73
2023/01/07 07:36:49;;;;;;;5.03;2.97;;;10.50;99.90;;;;;;5050924;28;20021;-72
2023/01/07 07:39:15;;;;;;;5.18;2.72;;;10.50;99.90;;;;;;5041978;28;20026;-73
2023/01/07 07:41:40;;;;;;;6.18;2.40;;;10.50;99.90;;;;;;5046763;28;20340;-72
2023/01/07 07:44:06;;;;;;;7.82;2.65;;;10.50;99.90;;;;;;5042296;28;20029;-73
2023/01/07 07:46:31;;;;;;;5.35;2.60;;;10.50;99.90;;;;;;5045851;28;20071;-73
2023/01/07 07:48:57;;;;;;;6.30;3.03;;;10.50;99.90;;;;;;5048073;28;20013;-73
2023/01/07 07:51:23;;;;;;;6.10;2.58;;;10.60;99.90;;;;;;5044545;28;20029;-73
2023/01/07 07:53:48;;;;;;;5.10;2.70;;;10.50;99.90;;;;;;5053882;28;20068;-73
2023/01/07 07:56:14;;;;;;;4.63;2.25;;;10.50;99.90;;;;;;5023825;28;20039;-72
2023/01/07 07:58:41;;;;;;;5.88;2.63;;;10.50;99.90;;;;;;5035953;28;20114;-73
2023/01/07 08:01:08;;;;;;;7.55;2.42;;;10.50;99.90;;;;;;5044676;28;20405;-73
2023/01/07 08:03:35;;;;;;;6.40;2.58;;;10.60;99.90;;;;;;5059625;28;20028;-73
2023/01/07 08:06:02;;;;;;;5.97;2.53;;;10.60;99.90;;;;;;5043484;28;20553;-73
2023/01/07 08:08:28;;;;;;;6.18;2.22;;;10.60;99.90;;;;;;5043443;28;20085;-73
2023/01/07 08:10:54;;;;;;;5.63;2.50;;;10.60;99.90;;;;;;5046051;28;20104;-73
2023/01/07 08:13:20;;;;;;;4.38;2.05;;;10.50;99.90;;;;;;5046516;28;20014;-73
2023/01/07 08:15:46;;;;;;;4.97;2.25;;;10.60;99.90;;;;;;5046359;28;20037;-73
2023/01/07 08:18:12;;;;;;;5.10;2.60;;;10.60;99.90;;;;;;5048542;28;20405;-71
2023/01/07 08:20:37;;;;;;;6.70;2.53;;;10.60;99.90;;;;;;5051170;28;20434;-71
2023/01/07 08:23:05;;;;;;;5.57;2.38;;;10.60;99.90;;;;;;5051007;28;20100;-71
2023/01/07 08:25:32;;;;;;;4.10;2.30;;;10.60;99.90;;;;;;5050330;28;20040;-71
2023/01/07 08:27:59;;;;;;;4.88;2.50;;;10.60;99.90;;;;;;5051739;28;20479;-71
2023/01/07 08:30:25;;;;;;;5.15;2.30;;;10.60;99.90;;;;;;5049949;28;20158;-71
2023/01/07 08:32:51;;;;;;;5.10;2.28;;;10.60;99.90;;;;;;5063227;28;20033;-73
2023/01/07 08:35:17;;;;;;;5.40;2.22;;;10.50;99.90;;;;;;5043812;28;20108;-72
2023/01/07 08:37:43;;;;;;;6.25;2.60;;;10.60;99.90;;;;;;5045147;28;20068;-73
2023/01/07 08:40:11;;;;;;;3.50;2.20;;;10.60;99.90;;;;;;5029521;28;20057;-73
2023/01/07 08:42:38;;;;;;;6.47;2.40;;;10.60;99.90;;;;;;5052260;28;20066;-73
2023/01/07 08:45:05;;;;;;;6.75;2.38;;;10.60;99.90;;;;;;5037048;28;20064;-73
2023/01/07 08:47:30;;;;;;;3.70;2.17;;;10.60;99.90;;;;;;5050735;28;20035;-73
2023/01/07 08:49:56;;;;;;;4.47;2.38;;;10.60;99.90;;;;;;5044742;28;20046;-73
2023/01/07 08:52:23;;;;;;;3.90;2.10;;;10.60;99.90;;;;;;5030571;28;20052;-73
2023/01/07 08:54:49;;;;;;;3.58;1.95;;;10.60;99.90;;;;;;5046574;28;20100;-73
2023/01/07 08:57:16;;;;;;;4.00;2.00;;;10.60;99.90;;;;;;5049357;28;20538;-73
2023/01/07 08:59:42;;;;;;;3.47;1.95;;;10.60;99.90;;;;;;5046926;28;20017;-73
2023/01/07 09:02:18;;;;;;;2.63;1.80;;;10.70;99.90;;;;;;5051785;28;20029;-73
2023/01/07 09:04:44;;;;;;;4.68;1.70;;;10.60;99.90;;;;;;5045424;28;20581;-73
2023/01/07 09:07:10;;;;;;;3.92;1.70;;;10.70;99.90;;;;;;5044107;28;20036;-73
2023/01/07 09:09:37;;;;;;;2.97;1.73;;;10.70;99.90;;;;;;5042761;28;20017;-73
2023/01/07 09:12:06;;;;;;;3.33;1.80;;;10.70;99.90;;;;;;5053918;28;20100;-73
2023/01/07 09:14:32;;;;;;;2.58;1.38;;;10.70;99.90;;;;;;5050094;28;20021;-73
2023/01/07 09:16:58;;;;;;;5.03;1.77;;;10.70;99.90;;;;;;5043694;28;20094;-73
2023/01/07 09:19:23;;;;;;;3.10;1.75;;;10.70;99.90;;;;;;5047213;28;20030;-73
2023/01/07 09:21:50;;;;;;;2.50;1.38;;;10.70;99.90;;;;;;5046136;28;20017;-73
2023/01/07 09:24:16;;;;;;;2.47;1.67;;;10.70;99.90;;;;;;5050309;28;20474;-73
2023/01/07 09:26:42;;;;;;;4.57;1.55;;;10.70;99.90;;;;;;5050351;28;20036;-73
2023/01/07 09:29:08;;;;;;;2.58;1.33;;;10.70;99.90;;;;;;5050432;28;20025;-73
2023/01/07 09:31:34;;;;;;;2.03;1.50;;;10.70;99.90;;;;;;5055733;28;20405;-73
2023/01/07 09:33:59;;;;;;;2.28;1.60;;;10.70;99.90;;;;;;5027622;28;20548;-73
2023/01/07 09:36:25;;;;;;;5.38;1.70;;;10.80;99.90;;;;;;5035281;28;20031;-73
2023/01/07 09:38:52;;;;;;;2.30;1.30;;;10.80;99.90;;;;;;5041917;28;20101;-73
2023/01/07 09:41:27;;;;;;;1.90;1.25;;;10.80;99.90;;;;;;5046326;28;20446;-73
2023/01/07 09:43:58;;;;;;;5.22;1.40;;;10.80;99.90;;;;;;5040591;28;20029;-73
2023/01/07 09:46:24;;;;;;;2.70;1.40;;;10.90;99.90;;;;;;5033933;28;20375;-73
2023/01/07 09:48:56;;;;;;;5.68;1.60;;;10.90;99.90;;;;;;5033019;28;20055;-73
2023/01/07 09:51:36;;;;;;;1.70;1.40;;;10.90;99.90;;;;;;5048878;28;20386;-73
2023/01/07 09:54:04;;;;;;;3.25;1.30;;;10.90;99.90;;;;;;5031236;28;20030;-73
2023/01/07 09:56:32;;;;;;;1.67;1.10;;;11.00;99.90;;;;;;5044260;28;20099;-73
2023/01/07 09:59:00;;;;;;;3.17;1.40;;;11.00;99.90;;;;;;5044196;28;20013;-73
2023/01/07 10:01:31;;;;;;;2.55;1.20;;;11.00;99.90;;;;;;5043490;28;20033;-73
2023/01/07 10:04:00;;;;;;;3.40;1.27;;;11.00;99.90;;;;;;5035034;28;20030;-73
2023/01/07 10:06:46;;;;;;;2.72;1.15;;;11.10;99.90;;;;;;5030895;28;20057;-73
2023/01/07 10:09:23;;;;;;;2.15;1.10;;;11.10;99.90;;;;;;5031737;28;20040;-73
2023/01/07 10:11:59;;;;;;;3.25;1.10;;;11.20;99.90;;;;;;5049869;28;20020;-73
2023/01/07 10:14:52;;;;;;;2.05;0.93;;;11.20;99.90;;;;;;5045559;28;20018;-73
2023/01/07 10:17:24;;;;;;;1.80;1.20;;;11.30;99.90;;;;;;5038672;28;20482;-73
2023/01/07 10:20:07;;;;;;;2.17;1.30;;;11.30;99.90;;;;;;5056686;28;20139;-72
2023/01/07 10:22:37;;;;;;;1.65;1.23;;;11.30;99.90;;;;;;5051148;28;20029;-73
2023/01/07 10:25:11;;;;;;;2.50;1.67;;;11.40;99.90;;;;;;5049699;28;20252;-73
2023/01/07 10:27:41;;;;;;;5.60;3.23;;;11.40;99.90;;;;;;5069360;28;20125;-73
2023/01/07 10:30:17;;;;;;;3.25;1.80;;;11.40;99.90;;;;;;5054960;28;20094;-73
2023/01/07 10:32:44;;;;;;;3.13;1.42;;;11.40;99.90;;;;;;5049390;28;20479;-74
2023/01/07 10:35:17;;;;;;;2.45;1.02;;;11.40;99.90;;;;;;5050243;28;20074;-74
2023/01/07 10:37:43;;;;;;;1.45;1.13;;;11.50;99.90;;;;;;5049583;28;20032;-74
2023/01/07 10:40:50;;;;;;;1.73;1.15;;;11.50;99.90;;;;;;5036006;28;20483;-74
2023/01/07 10:43:39;;;;;;;2.63;1.10;;;11.60;99.90;;;;;;5038014;28;20064;-72
2023/01/07 10:46:44;;;;;;;1.50;1.02;;;11.60;99.90;;;;;;5044260;28;20034;-72
2023/01/07 10:49:16;;;;;;;1.80;1.10;;;11.60;99.90;;;;;;5035453;28;20037;-72
2023/01/07 10:51:44;;;;;;;1.55;1.15;;;11.60;99.90;;;;;;5042742;28;20061;-73
2023/01/07 10:54:55;;;;;;;1.77;0.80;;;11.60;99.90;;;;;;5040010;28;20047;-71
2023/01/07 10:57:24;;;;;;;2.10;1.00;;;11.60;99.90;;;;;;5037960;28;20029;-71
2023/01/07 10:59:55;;;;;;;0.93;0.80;;;11.70;99.90;;;;;;5039449;28;20053;-71
2023/01/07 11:02:25;;;;;;;1.50;1.00;;;11.70;99.90;;;;;;5048415;28;20111;-71
2023/01/07 11:04:56;;;;;;;1.48;1.00;;;11.70;99.90;;;;;;5053527;28;20093;-71
2023/01/07 11:07:27;;;;;;;3.80;1.05;;;11.70;99.90;;;;;;5042951;28;20064;-71
2023/01/07 11:09:55;;;;;;;1.10;0.98;;;11.70;99.90;;;;;;5053099;28;20029;-71
2023/01/07 11:12:31;;;;;;;0.80;0.80;;;11.70;99.90;;;;;;5052143;28;20017;-72
2023/01/07 11:14:59;;;;;;;2.50;1.10;;;11.70;99.90;;;;;;5052735;28;20029;-71
2023/01/07 11:17:37;;;;;;;2.53;1.13;;;11.70;99.90;;;;;;5045272;28;20025;-71
2023/01/07 11:20:04;;;;;;;1.48;1.00;;;11.80;99.90;;;;;;5034095;28;20033;-72
2023/01/07 11:22:33;;;;;;;3.45;1.10;;;11.80;99.90;;;;;;5045976;28;20056;-71
2023/01/07 11:25:00;;;;;;;1.40;0.95;;;11.80;99.90;;;;;;5046465;28;20025;-72
2023/01/07 11:27:30;;;;;;;4.18;1.10;;;11.80;99.90;;;;;;5039230;28;20021;-72
2023/01/07 11:30:02;;;;;;;1.65;1.25;;;11.80;99.90;;;;;;5040664;28;20545;-72
2023/01/07 11:32:37;;;;;;;0.95;0.90;;;11.80;99.90;;;;;;5045551;28;20039;-71
2023/01/07 11:35:24;;;;;;;2.63;1.00;;;11.80;99.90;;;;;;5041043;28;20497;-72
2023/01/07 11:37:50;;;;;;;3.25;1.10;;;11.80;99.90;;;;;;5052440;28;20029;-72
2023/01/07 11:40:20;;;;;;;2.50;1.20;;;11.80;99.90;;;;;;5044340;28;20083;-72
2023/01/07 11:42:55;;;;;;;2.00;1.20;;;11.80;99.90;;;;;;5047145;28;20510;-72
2023/01/07 11:45:49;;;;;;;1.08;0.90;;;11.80;99.90;;;;;;5045179;28;20307;-72
2023/01/07 11:48:19;;;;;;;1.10;1.00;;;11.80;99.90;;;;;;5050195;28;20017;-72
2023/01/07 11:50:53;;;;;;;1.42;1.00;;;11.80;99.90;;;;;;5052240;28;20083;-72
2023/01/07 11:53:34;;;;;;;2.10;1.30;;;11.80;99.90;;;;;;5056017;28;20013;-72
2023/01/07 11:56:02;;;;;;;1.25;1.15;;;11.80;99.90;;;;;;5060209;28;20032;-72
2023/01/07 11:58:32;;;;;;;1.98;1.40;;;11.80;99.90;;;;;;5051588;28;20071;-72
2023/01/07 12:01:12;;;;;;;3.08;1.20;;;11.80;99.90;;;;;;5053464;28;20039;-72
2023/01/07 12:03:42;;;;;;;1.60;1.20;;;11.80;99.90;;;;;;5057230;28;20017;-72
2023/01/07 12:06:29;;;;;;;3.30;1.38;;;11.70;99.90;;;;;;5053342;28;20076;-72
2023/01/07 12:09:02;;;;;;;2.95;1.13;;;11.70;99.90;;;;;;5042147;28;20052;-72
2023/01/07 12:11:37;;;;;;;2.75;1.17;;;11.70;99.90;;;;;;5052360;28;20386;-72
2023/01/07 12:14:08;;;;;;;1.70;1.10;;;11.70;99.90;;;;;;5051043;28;20013;-71
2023/01/07 12:16:35;;;;;;;1.55;1.40;;;11.70;99.90;;;;;;5046876;28;20029;-72
2023/01/07 12:19:30;;;;;;;2.17;1.05;;;11.70;99.90;;;;;;5052587;28;20028;-72
2023/01/07 12:22:15;;;;;;;1.85;1.25;;;11.60;99.90;;;;;;5052296;28;20392;-72
2023/01/07 12:25:07;;;;;;;2.92;1.30;;;11.60;99.90;;;;;;5053783;28;20100;-72
2023/01/07 12:28:15;;;;;;;1.33;1.23;;;11.60;99.90;;;;;;5053858;28;20021;-72
2023/01/07 12:31:12;;;;;;;1.67;1.33;;;11.60;99.90;;;;;;5049552;28;20042;-72
2023/01/07 12:33:56;;;;;;;2.25;1.40;;;11.60;99.90;;;;;;5042481;28;20033;-72
2023/01/07 12:36:50;;;;;;;1.75;1.30;;;11.60;99.90;;;;;;5051029;28;20024;-72
2023/01/07 12:39:36;;;;;;;1.42;1.30;;;11.60;99.90;;;;;;5045691;28;20041;-73
2023/01/07 12:42:13;;;;;;;1.65;1.30;;;11.60;99.90;;;;;;5051848;28;20044;-73
2023/01/07 12:44:48;;;;;;;2.13;1.50;;;11.60;99.90;;;;;;5051303;28;20582;-73
2023/01/07 12:47:16;;;;;;;2.42;1.73;;;11.60;99.90;;;;;;5051023;28;20045;-73
2023/01/07 12:49:49;;;;;;;1.77;1.45;;;11.70;99.90;;;;;;5042751;28;20033;-73
2023/01/07 12:52:39;;;;;;;3.72;1.48;;;11.70;99.90;;;;;;5047564;28;20021;-73
2023/01/07 12:55:07;;;;;;;3.38;1.60;;;11.70;99.90;;;;;;5047977;28;20025;-73
2023/01/07 12:57:35;;;;;;;2.10;1.50;;;11.70;99.90;;;;;;5049969;28;20021;-73
2023/01/07 13:00:04;;;;;;;1.88;1.30;;;11.70;99.90;;;;;;5048559;28;20036;-72